sensor_id;sensor_type;location;lat;lon;timestamp;pressure;altitude;pressure_sealevel;temperature;humidity
9822;BME280;4950;46.042;14.472;2022-09-03T00:01:19;98017.22;;;15.98;78.89
9822;BME280;4950;46.042;14.472;2022-09-03T00:03:52;98014.59;;;15.91;78.87
9822;BME280;4950;46.042;14.472;2022-09-03T00:06:23;98015.22;;;15.87;79.12
9822;BME280;4950;46.042;14.472;2022-09-03T00:08:56;98013.59;;;15.86;79.49
9822;BME280;4950;46.042;14.472;2022-09-03T00:11:28;98002.72;;;15.89;79.10
9822;BME280;4950;46.042;14.472;2022-09-03T00:14:02;98007.94;;;15.89;79.35
9822;BME280;4950;46.042;14.472;2022-09-03T00:16:34;98012.78;;;15.92;79.22
9822;BME280;4950;46.042;14.472;2022-09-03T00:19:07;98007.34;;;15.87;79.44
9822;BME280;4950;46.042;14.472;2022-09-03T00:21:39;98004.34;;;15.83;79.47
9822;BME280;4950;46.042;14.472;2022-09-03T00:24:10;98000.31;;;15.94;78.60
9822;BME280;4950;46.042;14.472;2022-09-03T00:26:39;97996.06;;;15.93;78.40
9822;BME280;4950;46.042;14.472;2022-09-03T00:29:13;97992.03;;;15.84;78.25
9822;BME280;4950;46.042;14.472;2022-09-03T00:31:44;97990.66;;;15.81;78.10
9822;BME280;4950;46.042;14.472;2022-09-03T00:34:16;97998.94;;;15.78;78.43
9822;BME280;4950;46.042;14.472;2022-09-03T00:36:46;98003.34;;;15.77;78.20
9822;BME280;4950;46.042;14.472;2022-09-03T00:39:16;98007.38;;;15.67;78.50
9822;BME280;4950;46.042;14.472;2022-09-03T00:41:52;98007.56;;;15.38;79.79
9822;BME280;4950;46.042;14.472;2022-09-03T00:44:43;98011.22;;;15.17;80.87
9822;BME280;4950;46.042;14.472;2022-09-03T00:47:19;98018.63;;;15.00;81.47
9822;BME280;4950;46.042;14.472;2022-09-03T00:49:57;98023.78;;;14.74;82.73
9822;BME280;4950;46.042;14.472;2022-09-03T00:52:37;98034.81;;;14.63;83.19
9822;BME280;4950;46.042;14.472;2022-09-03T00:55:17;98029.19;;;14.72;82.81
9822;BME280;4950;46.042;14.472;2022-09-03T00:57:55;98042.31;;;14.79;82.59
9822;BME280;4950;46.042;14.472;2022-09-03T01:00:23;98039.28;;;14.82;82.97
9822;BME280;4950;46.042;14.472;2022-09-03T01:02:59;98045.13;;;14.84;82.99
9822;BME280;4950;46.042;14.472;2022-09-03T01:05:39;98042.13;;;14.87;83.09
9822;BME280;4950;46.042;14.472;2022-09-03T01:08:16;98047.94;;;14.89;83.07
9822;BME280;4950;46.042;14.472;2022-09-03T01:10:53;98041.53;;;14.98;82.71
9822;BME280;4950;46.042;14.472;2022-09-03T01:13:24;98041.75;;;14.97;82.83
9822;BME280;4950;46.042;14.472;2022-09-03T01:16:03;98038.13;;;14.98;82.75
9822;BME280;4950;46.042;14.472;2022-09-03T01:18:39;98032.09;;;15.04;82.81
9822;BME280;4950;46.042;14.472;2022-09-03T01:21:31;98022.88;;;15.08;82.57
9822;BME280;4950;46.042;14.472;2022-09-03T01:24:32;98030.69;;;15.15;82.32
9822;BME280;4950;46.042;14.472;2022-09-03T01:27:17;98023.06;;;15.20;82.15
9822;BME280;4950;46.042;14.472;2022-09-03T01:29:54;98012.41;;;15.28;81.79
9822;BME280;4950;46.042;14.472;2022-09-03T01:32:26;98015.22;;;15.27;81.47
9822;BME280;4950;46.042;14.472;2022-09-03T01:35:04;98018.25;;;15.30;81.95
9822;BME280;4950;46.042;14.472;2022-09-03T01:37:38;98045.81;;;15.26;81.85
9822;BME280;4950;46.042;14.472;2022-09-03T01:40:15;98052.03;;;15.25;81.86
9822;BME280;4950;46.042;14.472;2022-09-03T01:42:53;98059.09;;;15.18;81.61
9822;BME280;4950;46.042;14.472;2022-09-03T01:45:36;98066.47;;;15.01;82.36
9822;BME280;4950;46.042;14.472;2022-09-03T01:48:24;98077.56;;;14.55;83.65
9822;BME280;4950;46.042;14.472;2022-09-03T01:51:03;98073.31;;;14.47;83.69
9822;BME280;4950;46.042;14.472;2022-09-03T01:56:44;98074.84;;;14.35;84.36
9822;BME280;4950;46.042;14.472;2022-09-03T01:59:21;98069.47;;;14.43;84.17
9822;BME280;4950;46.042;14.472;2022-09-03T02:01:59;98063.50;;;14.56;83.71
9822;BME280;4950;46.042;14.472;2022-09-03T02:04:27;98058.13;;;14.57;83.60
9822;BME280;4950;46.042;14.472;2022-09-03T02:06:58;98056.13;;;14.66;83.21
9822;BME280;4950;46.042;14.472;2022-09-03T02:09:26;98054.97;;;14.75;82.65
9822;BME280;4950;46.042;14.472;2022-09-03T02:11:55;98061.41;;;14.79;82.30
9822;BME280;4950;46.042;14.472;2022-09-03T02:14:25;98063.41;;;14.84;81.81
9822;BME280;4950;46.042;14.472;2022-09-03T02:16:55;98061.44;;;14.86;81.38
9822;BME280;4950;46.042;14.472;2022-09-03T02:19:23;98073.66;;;14.79;81.64
9822;BME280;4950;46.042;14.472;2022-09-03T02:21:53;98066.03;;;14.77;81.47
9822;BME280;4950;46.042;14.472;2022-09-03T02:24:21;98079.47;;;14.74;81.72
9822;BME280;4950;46.042;14.472;2022-09-03T02:26:48;98084.69;;;14.74;81.58
9822;BME280;4950;46.042;14.472;2022-09-03T02:29:15;98073.25;;;14.69;81.82
9822;BME280;4950;46.042;14.472;2022-09-03T02:31:43;98077.03;;;14.66;82.07
9822;BME280;4950;46.042;14.472;2022-09-03T02:34:11;98067.41;;;14.67;82.20
9822;BME280;4950;46.042;14.472;2022-09-03T02:36:40;98072.03;;;14.71;81.90
9822;BME280;4950;46.042;14.472;2022-09-03T02:39:07;98073.84;;;14.71;82.07
9822;BME280;4950;46.042;14.472;2022-09-03T02:41:34;98083.47;;;14.70;82.05
9822;BME280;4950;46.042;14.472;2022-09-03T02:44:03;98081.28;;;14.67;82.14
9822;BME280;4950;46.042;14.472;2022-09-03T02:46:34;98078.84;;;14.66;82.27
9822;BME280;4950;46.042;14.472;2022-09-03T02:49:04;98064.97;;;14.65;82.34
9822;BME280;4950;46.042;14.472;2022-09-03T02:51:35;98067.38;;;14.60;82.08
9822;BME280;4950;46.042;14.472;2022-09-03T02:54:02;98067.31;;;14.53;82.74
9822;BME280;4950;46.042;14.472;2022-09-03T02:56:29;98067.31;;;14.53;82.90
9822;BME280;4950;46.042;14.472;2022-09-03T02:58:56;98070.13;;;14.52;82.48
9822;BME280;4950;46.042;14.472;2022-09-03T03:01:23;98071.53;;;14.54;82.87
9822;BME280;4950;46.042;14.472;2022-09-03T03:03:50;98071.53;;;14.54;82.58
9822;BME280;4950;46.042;14.472;2022-09-03T03:06:17;98068.91;;;14.54;82.61
9822;BME280;4950;46.042;14.472;2022-09-03T03:08:46;98068.38;;;14.59;82.32
9822;BME280;4950;46.042;14.472;2022-09-03T03:11:14;98064.13;;;14.58;82.48
9822;BME280;4950;46.042;14.472;2022-09-03T03:13:43;98066.75;;;14.65;82.23
9822;BME280;4950;46.042;14.472;2022-09-03T03:16:10;98074.22;;;14.61;82.41
9822;BME280;4950;46.042;14.472;2022-09-03T03:18:37;98081.84;;;14.63;82.24
9822;BME280;4950;46.042;14.472;2022-09-03T03:21:04;98068.31;;;14.52;82.19
9822;BME280;4950;46.042;14.472;2022-09-03T03:23:32;98059.25;;;14.48;82.19
9822;BME280;4950;46.042;14.472;2022-09-03T03:26:01;98061.25;;;14.46;82.40
9822;BME280;4950;46.042;14.472;2022-09-03T03:28:29;98050.41;;;14.49;82.20
9822;BME280;4950;46.042;14.472;2022-09-03T03:30:58;98059.00;;;14.43;82.38
9822;BME280;4950;46.042;14.472;2022-09-03T03:33:25;98073.69;;;14.37;82.50
9822;BME280;4950;46.042;14.472;2022-09-03T03:35:51;98072.66;;;14.32;82.77
9822;BME280;4950;46.042;14.472;2022-09-03T03:38:19;98069.19;;;14.31;82.89
9822;BME280;4950;46.042;14.472;2022-09-03T03:40:45;98065.78;;;14.31;82.97
9822;BME280;4950;46.042;14.472;2022-09-03T03:43:13;98064.75;;;14.25;83.10
9822;BME280;4950;46.042;14.472;2022-09-03T03:45:40;98058.31;;;14.21;83.53
9822;BME280;4950;46.042;14.472;2022-09-03T03:48:07;98056.50;;;14.21;83.54
9822;BME280;4950;46.042;14.472;2022-09-03T03:50:33;98056.50;;;14.21;83.70
9822;BME280;4950;46.042;14.472;2022-09-03T03:53:00;98053.88;;;14.21;83.67
9822;BME280;4950;46.042;14.472;2022-09-03T03:55:27;98057.09;;;14.23;83.44
9822;BME280;4950;46.042;14.472;2022-09-03T03:57:53;98054.22;;;14.05;84.03
9822;BME280;4950;46.042;14.472;2022-09-03T04:00:21;98048.13;;;13.98;84.35
9822;BME280;4950;46.042;14.472;2022-09-03T04:02:48;98054.78;;;14.00;84.26
9822;BME280;4950;46.042;14.472;2022-09-03T04:05:15;98057.41;;;14.00;84.22
9822;BME280;4950;46.042;14.472;2022-09-03T04:07:41;98055.19;;;14.04;84.10
9822;BME280;4950;46.042;14.472;2022-09-03T04:10:09;98051.63;;;14.12;84.09
9822;BME280;4950;46.042;14.472;2022-09-03T04:12:36;98055.06;;;14.12;83.81
9822;BME280;4950;46.042;14.472;2022-09-03T04:15:03;98065.72;;;14.17;83.54
9822;BME280;4950;46.042;14.472;2022-09-03T04:17:32;98060.13;;;14.20;83.18
9822;BME280;4950;46.042;14.472;2022-09-03T04:19:59;98053.50;;;14.25;82.86
9822;BME280;4950;46.042;14.472;2022-09-03T04:22:27;98063.59;;;14.28;82.75
9822;BME280;4950;46.042;14.472;2022-09-03T04:24:54;98064.63;;;13.98;83.67
9822;BME280;4950;46.042;14.472;2022-09-03T04:27:21;98055.31;;;13.89;84.60
9822;BME280;4950;46.042;14.472;2022-09-03T04:29:48;98052.75;;;13.96;84.37
9822;BME280;4950;46.042;14.472;2022-09-03T04:32:14;98051.97;;;14.02;84.24
9822;BME280;4950;46.042;14.472;2022-09-03T04:35:08;98049.00;;;14.12;83.46
9822;BME280;4950;46.042;14.472;2022-09-03T04:37:35;98046.28;;;14.20;82.53
9822;BME280;4950;46.042;14.472;2022-09-03T04:40:03;98046.28;;;14.20;82.35
9822;BME280;4950;46.042;14.472;2022-09-03T04:42:29;98044.28;;;14.22;82.15
9822;BME280;4950;46.042;14.472;2022-09-03T04:44:56;98050.66;;;14.19;82.26
9822;BME280;4950;46.042;14.472;2022-09-03T04:47:23;98056.28;;;14.16;82.75
9822;BME280;4950;46.042;14.472;2022-09-03T04:49:49;98062.66;;;14.07;82.90
9822;BME280;4950;46.042;14.472;2022-09-03T04:52:17;98064.63;;;13.98;83.54
9822;BME280;4950;46.042;14.472;2022-09-03T04:54:44;98059.78;;;13.95;83.69
9822;BME280;4950;46.042;14.472;2022-09-03T04:57:11;98066.38;;;13.91;83.94
9822;BME280;4950;46.042;14.472;2022-09-03T04:59:37;98062.00;;;13.70;84.23
9822;BME280;4950;46.042;14.472;2022-09-03T05:02:05;98056.16;;;13.68;84.46
9822;BME280;4950;46.042;14.472;2022-09-03T05:04:35;98061.81;;;13.72;84.47
9822;BME280;4950;46.042;14.472;2022-09-03T05:07:01;98059.63;;;13.75;84.32
9822;BME280;4950;46.042;14.472;2022-09-03T05:09:29;98060.44;;;13.76;84.42
9822;BME280;4950;46.042;14.472;2022-09-03T05:11:56;98065.66;;;13.76;84.19
9822;BME280;4950;46.042;14.472;2022-09-03T05:14:22;98064.59;;;13.70;84.40
9822;BME280;4950;46.042;14.472;2022-09-03T05:16:49;98068.22;;;13.69;84.56
9822;BME280;4950;46.042;14.472;2022-09-03T05:19:16;98072.94;;;13.59;84.80
9822;BME280;4950;46.042;14.472;2022-09-03T05:21:43;98073.78;;;13.59;85.22
9822;BME280;4950;46.042;14.472;2022-09-03T05:24:09;98078.78;;;13.61;84.61
9822;BME280;4950;46.042;14.472;2022-09-03T05:26:38;98079.59;;;13.61;85.29
9822;BME280;4950;46.042;14.472;2022-09-03T05:29:06;98084.44;;;13.65;85.38
9822;BME280;4950;46.042;14.472;2022-09-03T05:31:34;98079.19;;;13.58;85.55
9822;BME280;4950;46.042;14.472;2022-09-03T05:34:03;98071.72;;;13.55;86.40
9822;BME280;4950;46.042;14.472;2022-09-03T05:36:32;98081.22;;;13.62;86.18
9822;BME280;4950;46.042;14.472;2022-09-03T05:38:59;98071.78;;;13.61;86.73
9822;BME280;4950;46.042;14.472;2022-09-03T05:41:27;98072.75;;;13.60;86.66
9822;BME280;4950;46.042;14.472;2022-09-03T05:43:56;98078.84;;;13.68;86.35
9822;BME280;4950;46.042;14.472;2022-09-03T05:46:24;98084.28;;;13.73;86.29
9822;BME280;4950;46.042;14.472;2022-09-03T05:48:54;98083.94;;;13.54;86.75
9822;BME280;4950;46.042;14.472;2022-09-03T05:51:21;98084.09;;;13.46;87.55
9822;BME280;4950;46.042;14.472;2022-09-03T05:53:48;98080.38;;;13.55;87.42
9822;BME280;4950;46.042;14.472;2022-09-03T05:56:16;98085.59;;;13.55;87.07
9822;BME280;4950;46.042;14.472;2022-09-03T05:58:45;98080.22;;;13.63;87.48
9822;BME280;4950;46.042;14.472;2022-09-03T06:01:15;98081.28;;;13.69;86.76
9822;BME280;4950;46.042;14.472;2022-09-03T06:03:43;98082.69;;;13.72;86.87
9822;BME280;4950;46.042;14.472;2022-09-03T06:06:11;98084.09;;;13.74;86.62
9822;BME280;4950;46.042;14.472;2022-09-03T06:08:39;98081.69;;;13.73;87.48
9822;BME280;4950;46.042;14.472;2022-09-03T06:11:07;98085.34;;;13.78;87.58
9822;BME280;4950;46.042;14.472;2022-09-03T06:13:34;98083.34;;;13.80;87.78
9822;BME280;4950;46.042;14.472;2022-09-03T06:16:02;98088.81;;;13.86;87.49
9822;BME280;4950;46.042;14.472;2022-09-03T06:18:31;98091.25;;;13.87;87.44
9822;BME280;4950;46.042;14.472;2022-09-03T06:20:59;98093.22;;;13.85;87.88
9822;BME280;4950;46.042;14.472;2022-09-03T06:23:27;98083.41;;;13.87;87.97
9822;BME280;4950;46.042;14.472;2022-09-03T06:26:02;98079.44;;;13.98;87.83
9822;BME280;4950;46.042;14.472;2022-09-03T06:28:29;98075.47;;;14.02;87.67
9822;BME280;4950;46.042;14.472;2022-09-03T06:30:57;98071.91;;;14.10;87.24
9822;BME280;4950;46.042;14.472;2022-09-03T06:33:24;98072.56;;;14.18;87.25
9822;BME280;4950;46.042;14.472;2022-09-03T06:35:53;98065.16;;;14.22;87.09
9822;BME280;4950;46.042;14.472;2022-09-03T06:38:24;98065.22;;;14.35;86.35
9822;BME280;4950;46.042;14.472;2022-09-03T06:40:52;98067.63;;;14.37;86.44
9822;BME280;4950;46.042;14.472;2022-09-03T06:43:20;98074.47;;;14.38;86.38
9822;BME280;4950;46.042;14.472;2022-09-03T06:45:57;98067.69;;;14.44;86.85
9822;BME280;4950;46.042;14.472;2022-09-03T06:48:24;98069.38;;;14.58;86.67
9822;BME280;4950;46.042;14.472;2022-09-03T06:50:57;98070.03;;;14.67;86.18
9822;BME280;4950;46.042;14.472;2022-09-03T06:53:25;98065.00;;;14.72;85.69
9822;BME280;4950;46.042;14.472;2022-09-03T06:55:53;98066.03;;;14.77;85.73
9822;BME280;4950;46.042;14.472;2022-09-03T06:58:19;98052.97;;;14.84;85.65
9822;BME280;4950;46.042;14.472;2022-09-03T07:00:47;98055.19;;;14.94;85.15
9822;BME280;4950;46.042;14.472;2022-09-03T07:03:14;98049.59;;;15.04;85.09
9822;BME280;4950;46.042;14.472;2022-09-03T07:05:42;98050.81;;;15.08;85.17
9822;BME280;4950;46.042;14.472;2022-09-03T07:08:10;98056.06;;;15.21;84.49
9822;BME280;4950;46.042;14.472;2022-09-03T07:10:37;98047.81;;;15.17;84.78
9822;BME280;4950;46.042;14.472;2022-09-03T07:13:04;98050.63;;;15.23;84.41
9822;BME280;4950;46.042;14.472;2022-09-03T07:15:31;98047.03;;;15.24;84.12
9822;BME280;4950;46.042;14.472;2022-09-03T07:17:58;98051.84;;;15.20;84.59
9822;BME280;4950;46.042;14.472;2022-09-03T07:20:25;98047.84;;;15.37;83.89
9822;BME280;4950;46.042;14.472;2022-09-03T07:22:54;98053.84;;;15.45;84.17
9822;BME280;4950;46.042;14.472;2022-09-03T07:25:22;98048.84;;;15.50;83.87
9822;BME280;4950;46.042;14.472;2022-09-03T07:27:50;98055.47;;;15.52;83.03
9822;BME280;4950;46.042;14.472;2022-09-03T07:30:17;98044.22;;;15.58;83.16
9822;BME280;4950;46.042;14.472;2022-09-03T07:32:44;98043.81;;;15.68;82.92
9822;BME280;4950;46.042;14.472;2022-09-03T07:35:11;98050.03;;;15.87;82.50
9822;BME280;4950;46.042;14.472;2022-09-03T07:37:39;98052.66;;;16.01;81.36
9822;BME280;4950;46.042;14.472;2022-09-03T07:40:07;98046.41;;;16.02;81.61
9822;BME280;4950;46.042;14.472;2022-09-03T07:42:36;98036.31;;;16.05;81.81
9822;BME280;4950;46.042;14.472;2022-09-03T07:45:06;98033.50;;;16.13;81.77
9822;BME280;4950;46.042;14.472;2022-09-03T07:47:34;98034.44;;;16.26;81.78
9822;BME280;4950;46.042;14.472;2022-09-03T07:50:01;98036.84;;;16.34;80.27
9822;BME280;4950;46.042;14.472;2022-09-03T07:52:29;98042.44;;;16.44;80.52
9822;BME280;4950;46.042;14.472;2022-09-03T07:54:55;98041.97;;;16.61;79.68
9822;BME280;4950;46.042;14.472;2022-09-03T07:57:22;98041.38;;;16.58;79.60
9822;BME280;4950;46.042;14.472;2022-09-03T07:59:50;98040.72;;;16.70;79.05
9822;BME280;4950;46.042;14.472;2022-09-03T08:02:16;98032.19;;;16.81;78.97
9822;BME280;4950;46.042;14.472;2022-09-03T08:04:43;98040.00;;;16.94;79.17
9822;BME280;4950;46.042;14.472;2022-09-03T08:07:10;98032.81;;;17.15;78.19
9822;BME280;4950;46.042;14.472;2022-09-03T08:09:36;98035.78;;;17.25;77.46
9822;BME280;4950;46.042;14.472;2022-09-03T08:12:03;98032.88;;;17.33;76.93
9822;BME280;4950;46.042;14.472;2022-09-03T08:14:30;98032.13;;;17.51;75.72
9822;BME280;4950;46.042;14.472;2022-09-03T08:16:58;98039.91;;;17.65;75.55
9822;BME280;4950;46.042;14.472;2022-09-03T08:19:25;98038.53;;;17.81;73.81
9822;BME280;4950;46.042;14.472;2022-09-03T08:21:52;98038.59;;;17.74;73.08
9822;BME280;4950;46.042;14.472;2022-09-03T08:24:18;98037.00;;;17.73;73.56
9822;BME280;4950;46.042;14.472;2022-09-03T08:26:48;98043.00;;;17.80;73.74
9822;BME280;4950;46.042;14.472;2022-09-03T08:29:15;98038.31;;;17.89;73.81
9822;BME280;4950;46.042;14.472;2022-09-03T08:31:42;98045.69;;;17.99;73.49
9822;BME280;4950;46.042;14.472;2022-09-03T08:34:10;98049.09;;;18.18;72.43
9822;BME280;4950;46.042;14.472;2022-09-03T08:36:39;98047.97;;;18.32;71.95
9822;BME280;4950;46.042;14.472;2022-09-03T08:39:08;98044.81;;;18.42;71.29
9822;BME280;4950;46.042;14.472;2022-09-03T08:41:45;98034.34;;;18.53;71.06
9822;BME280;4950;46.042;14.472;2022-09-03T08:44:21;98034.88;;;18.74;71.25
9822;BME280;4950;46.042;14.472;2022-09-03T08:46:52;98038.06;;;18.83;69.93
9822;BME280;4950;46.042;14.472;2022-09-03T08:49:26;98044.63;;;19.04;68.91
9822;BME280;4950;46.042;14.472;2022-09-03T08:51:59;98045.69;;;19.14;67.93
9822;BME280;4950;46.042;14.472;2022-09-03T08:54:29;98037.69;;;19.21;66.91
9822;BME280;4950;46.042;14.472;2022-09-03T08:56:59;98028.44;;;19.30;67.86
9822;BME280;4950;46.042;14.472;2022-09-03T08:59:27;98029.50;;;19.41;67.15
9822;BME280;4950;46.042;14.472;2022-09-03T09:01:59;98026.41;;;19.56;66.92
9822;BME280;4950;46.042;14.472;2022-09-03T09:04:41;98028.28;;;19.79;65.37
9822;BME280;4950;46.042;14.472;2022-09-03T09:07:12;98035.94;;;19.92;63.47
9822;BME280;4950;46.042;14.472;2022-09-03T09:09:45;98037.88;;;19.97;63.46
9822;BME280;4950;46.042;14.472;2022-09-03T09:12:22;98028.81;;;20.05;63.65
9822;BME280;4950;46.042;14.472;2022-09-03T09:15:05;98028.72;;;20.11;63.89
9822;BME280;4950;46.042;14.472;2022-09-03T09:17:50;98036.91;;;20.27;64.07
9822;BME280;4950;46.042;14.472;2022-09-03T09:20:29;98024.53;;;20.27;62.88
9822;BME280;4950;46.042;14.472;2022-09-03T09:23:02;98018.47;;;20.15;61.67
9822;BME280;4950;46.042;14.472;2022-09-03T09:25:31;98012.94;;;20.28;62.08
9822;BME280;4950;46.042;14.472;2022-09-03T09:28:15;98028.63;;;20.47;62.56
9822;BME280;4950;46.042;14.472;2022-09-03T09:30:43;98019.19;;;20.63;62.62
9822;BME280;4950;46.042;14.472;2022-09-03T09:33:11;98021.38;;;20.83;61.64
9822;BME280;4950;46.042;14.472;2022-09-03T09:35:39;98018.41;;;21.08;59.99
9822;BME280;4950;46.042;14.472;2022-09-03T09:38:08;98022.63;;;21.26;57.68
9822;BME280;4950;46.042;14.472;2022-09-03T09:40:36;98018.72;;;21.28;55.31
9822;BME280;4950;46.042;14.472;2022-09-03T09:43:05;98023.69;;;21.25;55.87
9822;BME280;4950;46.042;14.472;2022-09-03T09:45:35;98025.59;;;21.29;56.13
9822;BME280;4950;46.042;14.472;2022-09-03T09:48:10;98032.81;;;21.17;55.58
9822;BME280;4950;46.042;14.472;2022-09-03T09:50:41;98032.47;;;21.30;56.05
9822;BME280;4950;46.042;14.472;2022-09-03T09:53:09;98031.28;;;21.38;55.64
9822;BME280;4950;46.042;14.472;2022-09-03T09:55:51;98035.25;;;21.53;56.93
9822;BME280;4950;46.042;14.472;2022-09-03T09:58:19;98029.47;;;21.56;57.36
9822;BME280;4950;46.042;14.472;2022-09-03T10:00:57;98022.19;;;21.63;57.35
9822;BME280;4950;46.042;14.472;2022-09-03T10:03:24;98016.56;;;21.76;56.68
9822;BME280;4950;46.042;14.472;2022-09-03T10:06:01;98017.66;;;21.97;55.52
9822;BME280;4950;46.042;14.472;2022-09-03T10:08:50;98011.50;;;22.14;55.05
9822;BME280;4950;46.042;14.472;2022-09-03T10:11:17;98010.97;;;22.34;54.79
9822;BME280;4950;46.042;14.472;2022-09-03T10:13:46;98011.50;;;22.58;55.17
9822;BME280;4950;46.042;14.472;2022-09-03T10:16:20;97997.38;;;22.74;53.49
9822;BME280;4950;46.042;14.472;2022-09-03T10:18:53;97999.63;;;22.87;53.72
9822;BME280;4950;46.042;14.472;2022-09-03T10:21:29;97997.22;;;23.13;53.48
9822;BME280;4950;46.042;14.472;2022-09-03T10:24:17;97994.16;;;23.32;53.95
9822;BME280;4950;46.042;14.472;2022-09-03T10:26:48;98002.31;;;23.57;52.97
9822;BME280;4950;46.042;14.472;2022-09-03T10:29:17;97999.84;;;23.83;51.59
9822;BME280;4950;46.042;14.472;2022-09-03T10:31:52;97992.50;;;24.05;51.89
9822;BME280;4950;46.042;14.472;2022-09-03T10:34:24;97988.88;;;24.27;51.06
9822;BME280;4950;46.042;14.472;2022-09-03T10:37:09;97989.13;;;24.20;49.10
9822;BME280;4950;46.042;14.472;2022-09-03T10:39:51;98005.22;;;23.56;50.41
9822;BME280;4950;46.042;14.472;2022-09-03T10:42:41;97999.94;;;23.61;51.00
9822;BME280;4950;46.042;14.472;2022-09-03T10:45:29;97994.53;;;23.83;50.38
9822;BME280;4950;46.042;14.472;2022-09-03T10:48:30;97996.19;;;23.99;50.36
9822;BME280;4950;46.042;14.472;2022-09-03T10:51:04;98000.00;;;24.19;50.12
9822;BME280;4950;46.042;14.472;2022-09-03T10:53:48;97998.72;;;24.32;49.76
9822;BME280;4950;46.042;14.472;2022-09-03T10:56:21;97997.69;;;24.48;50.64
9822;BME280;4950;46.042;14.472;2022-09-03T11:01:51;97995.25;;;24.26;50.37
9822;BME280;4950;46.042;14.472;2022-09-03T11:04:28;97988.47;;;24.56;50.40
9822;BME280;4950;46.042;14.472;2022-09-03T11:07:03;97983.44;;;24.80;49.66
9822;BME280;4950;46.042;14.472;2022-09-03T11:09:35;97981.34;;;24.77;49.33
9822;BME280;4950;46.042;14.472;2022-09-03T11:12:07;97984.53;;;24.89;48.37
9822;BME280;4950;46.042;14.472;2022-09-03T11:14:39;97990.03;;;24.52;49.16
9822;BME280;4950;46.042;14.472;2022-09-03T11:17:10;97991.13;;;24.56;49.79
9822;BME280;4950;46.042;14.472;2022-09-03T11:19:45;97983.72;;;24.83;47.80
9822;BME280;4950;46.042;14.472;2022-09-03T11:22:14;97988.25;;;24.83;46.98
9822;BME280;4950;46.042;14.472;2022-09-03T11:24:46;97978.94;;;24.75;48.49
9822;BME280;4950;46.042;14.472;2022-09-03T11:27:22;97985.06;;;24.91;48.47
9822;BME280;4950;46.042;14.472;2022-09-03T11:29:55;97979.75;;;24.91;47.81
9822;BME280;4950;46.042;14.472;2022-09-03T11:32:31;97970.44;;;24.99;47.42
9822;BME280;4950;46.042;14.472;2022-09-03T11:35:01;97961.41;;;25.05;47.17
9822;BME280;4950;46.042;14.472;2022-09-03T11:37:47;97963.28;;;25.25;47.27
9822;BME280;4950;46.042;14.472;2022-09-03T11:40:17;97958.72;;;25.61;46.06
9822;BME280;4950;46.042;14.472;2022-09-03T11:42:46;97943.28;;;25.69;45.63
9822;BME280;4950;46.042;14.472;2022-09-03T11:45:21;97946.91;;;25.98;45.76
9822;BME280;4950;46.042;14.472;2022-09-03T11:47:49;97956.69;;;26.13;43.71
9822;BME280;4950;46.042;14.472;2022-09-03T11:50:20;97954.16;;;26.37;42.57
9822;BME280;4950;46.042;14.472;2022-09-03T11:52:47;97955.19;;;26.47;41.39
9822;BME280;4950;46.042;14.472;2022-09-03T11:55:28;97950.44;;;26.38;41.61
9822;BME280;4950;46.042;14.472;2022-09-03T11:58:10;97943.31;;;26.29;42.46
9822;BME280;4950;46.042;14.472;2022-09-03T12:00:39;97949.88;;;26.42;41.05
9822;BME280;4950;46.042;14.472;2022-09-03T12:03:12;97948.34;;;26.30;41.05
9822;BME280;4950;46.042;14.472;2022-09-03T12:05:48;97949.50;;;26.09;41.42
9822;BME280;4950;46.042;14.472;2022-09-03T12:08:46;97932.84;;;25.77;41.56
9822;BME280;4950;46.042;14.472;2022-09-03T12:11:31;97930.97;;;25.88;41.75
9822;BME280;4950;46.042;14.472;2022-09-03T12:14:05;97930.94;;;26.04;41.54
9822;BME280;4950;46.042;14.472;2022-09-03T12:16:53;97934.41;;;25.89;40.89
9822;BME280;4950;46.042;14.472;2022-09-03T12:19:29;97928.75;;;26.11;41.30
9822;BME280;4950;46.042;14.472;2022-09-03T12:22:01;97925.50;;;26.24;40.89
9822;BME280;4950;46.042;14.472;2022-09-03T12:24:29;97921.38;;;26.42;40.79
9822;BME280;4950;46.042;14.472;2022-09-03T12:27:03;97927.38;;;26.68;40.32
9822;BME280;4950;46.042;14.472;2022-09-03T12:29:30;97925.03;;;26.56;40.91
9822;BME280;4950;46.042;14.472;2022-09-03T12:32:06;97927.44;;;26.53;40.24
9822;BME280;4950;46.042;14.472;2022-09-03T12:34:33;97924.78;;;26.53;40.41
9822;BME280;4950;46.042;14.472;2022-09-03T12:36:59;97924.47;;;26.65;41.11
9822;BME280;4950;46.042;14.472;2022-09-03T12:39:27;97914.38;;;26.56;40.35
9822;BME280;4950;46.042;14.472;2022-09-03T12:42:07;97913.13;;;26.83;40.81
9822;BME280;4950;46.042;14.472;2022-09-03T12:44:40;97910.66;;;26.92;40.64
9822;BME280;4950;46.042;14.472;2022-09-03T12:47:10;97905.34;;;26.92;41.45
9822;BME280;4950;46.042;14.472;2022-09-03T12:49:40;97900.41;;;27.04;41.45
9822;BME280;4950;46.042;14.472;2022-09-03T12:52:10;97901.00;;;27.01;41.13
9822;BME280;4950;46.042;14.472;2022-09-03T12:54:47;97902.19;;;27.14;41.73
9822;BME280;4950;46.042;14.472;2022-09-03T12:57:20;97904.38;;;27.36;40.51
9822;BME280;4950;46.042;14.472;2022-09-03T12:59:51;97904.19;;;27.32;40.69
9822;BME280;4950;46.042;14.472;2022-09-03T13:02:23;97892.41;;;27.33;41.04
9822;BME280;4950;46.042;14.472;2022-09-03T13:04:52;97880.13;;;27.62;40.20
9822;BME280;4950;46.042;14.472;2022-09-03T13:07:27;97880.94;;;27.81;39.94
9822;BME280;4950;46.042;14.472;2022-09-03T13:10:02;97885.19;;;27.82;40.30
9822;BME280;4950;46.042;14.472;2022-09-03T13:12:34;97881.13;;;27.66;40.04
9822;BME280;4950;46.042;14.472;2022-09-03T13:15:11;97879.59;;;27.35;40.76
9822;BME280;4950;46.042;14.472;2022-09-03T13:18:00;97880.09;;;27.37;41.23
9822;BME280;4950;46.042;14.472;2022-09-03T13:20:38;97876.59;;;27.42;41.42
9822;BME280;4950;46.042;14.472;2022-09-03T13:23:17;97874.22;;;27.41;40.85
9822;BME280;4950;46.042;14.472;2022-09-03T13:25:56;97871.72;;;27.49;40.42
9822;BME280;4950;46.042;14.472;2022-09-03T13:28:37;97868.53;;;27.47;41.53
9822;BME280;4950;46.042;14.472;2022-09-03T13:31:21;97870.97;;;27.44;41.72
9822;BME280;4950;46.042;14.472;2022-09-03T13:33:52;97865.59;;;27.49;40.90
9822;BME280;4950;46.042;14.472;2022-09-03T13:36:22;97855.09;;;27.33;40.77
9822;BME280;4950;46.042;14.472;2022-09-03T13:38:54;97855.31;;;27.37;40.98